Time;durP1;ratioP1;P1;durP2;ratioP2;P2;SDS_P1;SDS_P2;PMS_P1;PMS_P2;Temp;Humidity;BMP_temperature;BMP_pressure;BME280_temperature;BME280_humidity;BME280_pressure;Samples;Min_cycle;Max_cycle;Signal;HPM_P1;HPM_P2
2023/07/21 00:01:36;;;;;;;0.10;0.10;;;13.40;59.40;;;;;;5052814;28;20198;-49
2023/07/21 00:04:07;;;;;;;0.20;0.20;;;13.40;59.50;;;;;;5053419;28;20620;-49
2023/07/21 00:06:38;;;;;;;0.10;0.10;;;13.40;59.40;;;;;;5052526;28;20223;-50
2023/07/21 00:09:09;;;;;;;0.20;0.20;;;13.40;59.30;;;;;;5049698;28;20199;-49
2023/07/21 00:11:40;;;;;;;0.20;0.20;;;13.50;59.30;;;;;;5033892;28;20628;-50
2023/07/21 00:14:11;;;;;;;0.10;0.10;;;13.50;59.30;;;;;;5032910;28;20296;-50
2023/07/21 00:16:43;;;;;;;0.10;0.10;;;13.50;59.30;;;;;;5033438;28;20637;-50
2023/07/21 00:19:14;;;;;;;0.10;0.10;;;13.60;59.30;;;;;;5032367;28;20228;-51
2023/07/21 00:21:44;;;;;;;0.10;0.10;;;13.60;59.20;;;;;;5047898;28;20371;-52
2023/07/21 00:24:17;;;;;;;0.10;0.10;;;13.60;59.20;;;;;;5052981;28;20198;-50
2023/07/21 00:26:48;;;;;;;0.10;0.10;;;13.60;59.20;;;;;;5052758;28;20211;-50
2023/07/21 00:29:18;;;;;;;0.10;0.10;;;13.70;59.30;;;;;;5052354;28;20647;-52
2023/07/21 00:31:51;;;;;;;0.10;0.10;;;13.70;59.20;;;;;;5051891;28;20667;-50
2023/07/21 00:34:24;;;;;;;0.20;0.20;;;13.70;59.20;;;;;;5042938;28;20192;-50
2023/07/21 00:36:59;;;;;;;0.10;0.10;;;13.70;59.20;;;;;;5049702;28;20262;-49
2023/07/21 00:39:29;;;;;;;0.10;0.10;;;13.70;59.20;;;;;;5053011;28;20769;-53
2023/07/21 00:42:00;;;;;;;0.10;0.10;;;13.70;59.20;;;;;;5051545;28;20200;-51
2023/07/21 00:44:30;;;;;;;0.10;0.10;;;13.80;59.20;;;;;;5053048;28;20207;-50
2023/07/21 00:47:03;;;;;;;0.10;0.10;;;13.80;59.30;;;;;;5052620;28;20227;-52
2023/07/21 00:49:37;;;;;;;0.10;0.10;;;13.80;59.20;;;;;;5051882;28;20207;-51
2023/07/21 00:52:08;;;;;;;0.10;0.10;;;13.80;59.20;;;;;;5052157;28;20195;-52
2023/07/21 00:54:39;;;;;;;0.10;0.10;;;13.90;59.20;;;;;;5052503;28;20214;-50
2023/07/21 00:57:11;;;;;;;0.10;0.10;;;13.90;59.20;;;;;;5034972;28;20753;-51
2023/07/21 00:59:41;;;;;;;0.10;0.10;;;13.90;59.20;;;;;;5032837;28;20777;-52
2023/07/21 01:02:14;;;;;;;0.20;0.20;;;13.90;59.20;;;;;;5032198;28;20602;-50
2023/07/21 01:04:45;;;;;;;0.10;0.10;;;13.90;59.10;;;;;;5036948;28;20195;-49
2023/07/21 01:07:17;;;;;;;0.10;0.10;;;13.90;59.10;;;;;;5050479;28;20240;-53
2023/07/21 01:09:47;;;;;;;0.10;0.10;;;13.90;59.10;;;;;;5043422;28;20231;-51
2023/07/21 01:12:18;;;;;;;0.10;0.10;;;14.00;59.20;;;;;;5048223;28;20192;-52
2023/07/21 01:14:49;;;;;;;0.10;0.10;;;14.00;59.20;;;;;;5033644;28;20200;-49
2023/07/21 01:17:23;;;;;;;0.10;0.10;;;14.00;59.20;;;;;;5033349;28;20211;-52
2023/07/21 01:19:54;;;;;;;0.10;0.10;;;14.00;59.20;;;;;;5051633;28;20226;-54
2023/07/21 01:22:27;;;;;;;0.10;0.10;;;14.00;59.20;;;;;;5035905;28;20283;-52
2023/07/21 01:25:11;;;;;;;0.10;0.10;;;14.00;59.20;;;;;;5030916;28;20597;-54
2023/07/21 01:27:43;;;;;;;0.10;0.10;;;14.00;59.20;;;;;;5035600;28;20223;-51
2023/07/21 01:30:15;;;;;;;0.10;0.10;;;14.10;59.20;;;;;;5051112;28;20211;-52
2023/07/21 01:32:47;;;;;;;0.10;0.10;;;14.10;59.30;;;;;;5051755;28;20191;-50
2023/07/21 01:35:21;;;;;;;0.10;0.10;;;14.10;59.30;;;;;;5051165;28;20205;-52
2023/07/21 01:37:52;;;;;;;0.10;0.10;;;14.10;59.30;;;;;;5051768;28;20294;-51
2023/07/21 01:40:26;;;;;;;0.10;0.10;;;14.10;59.30;;;;;;5051414;28;20224;-50
2023/07/21 01:42:57;;;;;;;0.20;0.20;;;14.20;59.40;;;;;;5050955;28;20277;-49
2023/07/21 01:45:30;;;;;;;0.10;0.10;;;14.20;59.40;;;;;;5050855;28;20618;-53
2023/07/21 01:48:01;;;;;;;0.10;0.10;;;14.20;59.30;;;;;;5051319;28;20207;-52
2023/07/21 01:50:33;;;;;;;0.10;0.10;;;14.20;59.30;;;;;;5051180;28;20207;-49
2023/07/21 01:53:09;;;;;;;0.10;0.10;;;14.20;59.30;;;;;;5051366;28;20198;-49
2023/07/21 01:55:46;;;;;;;0.10;0.10;;;14.20;59.30;;;;;;5050401;28;20207;-50
2023/07/21 01:58:20;;;;;;;0.10;0.10;;;14.20;59.30;;;;;;5041205;28;20211;-51
2023/07/21 02:00:51;;;;;;;0.10;0.10;;;14.30;59.30;;;;;;5031856;28;20224;-49
2023/07/21 02:03:23;;;;;;;0.10;0.10;;;14.30;59.30;;;;;;5030453;28;20195;-51
2023/07/21 02:05:53;;;;;;;0.10;0.10;;;14.30;59.30;;;;;;5041091;28;20670;-54
2023/07/21 02:08:24;;;;;;;0.10;0.10;;;14.30;59.30;;;;;;5050171;28;20674;-50
2023/07/21 02:10:56;;;;;;;0.10;0.10;;;14.30;59.20;;;;;;5035320;28;20258;-51
2023/07/21 02:13:27;;;;;;;0.10;0.10;;;14.30;59.20;;;;;;5037672;28;20217;-50
2023/07/21 02:15:58;;;;;;;0.10;0.10;;;14.30;59.20;;;;;;5050186;28;20192;-53
2023/07/21 02:18:28;;;;;;;0.10;0.10;;;14.40;59.20;;;;;;5050505;28;20701;-54
2023/07/21 02:21:04;;;;;;;0.10;0.10;;;14.40;59.20;;;;;;5050386;28;20199;-53
2023/07/21 02:23:35;;;;;;;0.10;0.10;;;14.40;59.10;;;;;;5050907;28;20291;-51
2023/07/21 02:26:07;;;;;;;0.10;0.10;;;14.40;59.10;;;;;;5050690;28;20206;-55
2023/07/21 02:28:38;;;;;;;0.13;0.13;;;14.40;59.10;;;;;;5050648;28;20195;-51
2023/07/21 02:31:09;;;;;;;0.10;0.10;;;14.40;59.60;;;;;;5050287;28;20205;-52
2023/07/21 02:33:40;;;;;;;0.10;0.10;;;14.50;59.00;;;;;;5050670;28;20191;-54
2023/07/21 02:36:11;;;;;;;0.10;0.10;;;14.50;59.00;;;;;;5049547;28;20206;-51
2023/07/21 02:38:41;;;;;;;0.15;0.15;;;14.50;59.10;;;;;;5050980;28;20282;-51
2023/07/21 02:41:15;;;;;;;0.10;0.10;;;14.50;59.20;;;;;;5030659;28;20193;-51
2023/07/21 02:43:46;;;;;;;0.10;0.10;;;14.50;59.30;;;;;;5031033;28;20529;-51
2023/07/21 02:46:17;;;;;;;0.10;0.10;;;14.60;59.30;;;;;;5031171;28;20746;-50
2023/07/21 02:48:47;;;;;;;0.15;0.15;;;14.50;59.20;;;;;;5030332;28;20247;-52
2023/07/21 02:51:20;;;;;;;0.10;0.10;;;14.60;59.20;;;;;;5030617;28;20200;-51
2023/07/21 02:53:52;;;;;;;0.20;0.20;;;14.60;59.70;;;;;;5038517;28;20258;-52
2023/07/21 02:56:24;;;;;;;0.10;0.10;;;14.60;59.10;;;;;;5050237;28;20229;-53
2023/07/21 02:58:56;;;;;;;0.10;0.10;;;14.70;59.10;;;;;;5034638;28;20196;-51
2023/07/21 03:01:27;;;;;;;0.10;0.10;;;14.70;59.20;;;;;;5030545;28;20283;-50
2023/07/21 03:03:58;;;;;;;0.10;0.10;;;14.70;59.10;;;;;;5038983;28;20222;-52
2023/07/21 03:06:30;;;;;;;0.17;0.17;;;14.70;59.00;;;;;;5047521;28;20774;-49
2023/07/21 03:09:01;;;;;;;0.10;0.10;;;14.70;59.00;;;;;;5038689;28;20589;-48
2023/07/21 03:11:34;;;;;;;0.10;0.10;;;14.70;59.00;;;;;;5050375;28;20281;-49
2023/07/21 03:14:04;;;;;;;0.10;0.10;;;14.70;58.90;;;;;;5051499;28;20706;-50
2023/07/21 03:16:35;;;;;;;0.10;0.10;;;14.70;58.80;;;;;;5050679;28;20211;-49
2023/07/21 03:19:06;;;;;;;0.10;0.10;;;14.80;58.80;;;;;;5045007;28;20609;-50
2023/07/21 03:21:37;;;;;;;0.10;0.10;;;14.70;58.60;;;;;;5052717;28;20626;-50
2023/07/21 03:24:08;;;;;;;0.10;0.10;;;14.70;57.90;;;;;;5049242;28;20190;-50
2023/07/21 03:26:41;;;;;;;0.10;0.10;;;14.70;57.90;;;;;;5052659;28;20222;-50
2023/07/21 03:29:11;;;;;;;0.10;0.10;;;14.70;58.20;;;;;;5045155;28;20238;-50
2023/07/21 03:31:42;;;;;;;0.10;0.10;;;14.70;58.10;;;;;;5042013;28;20700;-53
2023/07/21 03:34:13;;;;;;;0.20;0.20;;;14.70;58.10;;;;;;5033790;28;20192;-50
2023/07/21 03:36:44;;;;;;;0.10;0.10;;;14.70;58.10;;;;;;5050304;28;20716;-48
2023/07/21 03:39:14;;;;;;;0.10;0.10;;;14.80;58.10;;;;;;5053688;28;20194;-49
2023/07/21 03:41:47;;;;;;;0.10;0.10;;;14.70;58.00;;;;;;5053568;28;20195;-48
2023/07/21 03:44:17;;;;;;;0.10;0.10;;;14.80;58.10;;;;;;5052691;28;20191;-51
2023/07/21 03:46:48;;;;;;;0.00;0.00;;;14.80;58.00;;;;;;5052404;28;20219;-49
2023/07/21 03:49:19;;;;;;;0.20;0.20;;;14.80;58.00;;;;;;5052988;28;20191;-49
2023/07/21 03:51:49;;;;;;;0.00;0.00;;;14.80;58.00;;;;;;5052925;28;20207;-50
2023/07/21 03:54:20;;;;;;;0.08;0.08;;;14.80;58.00;;;;;;5053047;28;20188;-50
2023/07/21 03:56:53;;;;;;;0.10;0.10;;;14.80;58.00;;;;;;5052554;28;20211;-49
2023/07/21 03:59:23;;;;;;;0.10;0.10;;;14.80;58.00;;;;;;5033708;28;20642;-48
2023/07/21 04:01:54;;;;;;;0.10;0.10;;;14.80;58.00;;;;;;5041923;28;20195;-49
2023/07/21 04:04:24;;;;;;;0.10;0.10;;;14.90;58.00;;;;;;5044697;28;20242;-52
2023/07/21 04:06:55;;;;;;;0.10;0.10;;;14.90;58.00;;;;;;5050442;28;20628;-51
2023/07/21 04:09:26;;;;;;;0.10;0.10;;;14.90;58.00;;;;;;5053371;28;20242;-53
2023/07/21 04:11:58;;;;;;;0.10;0.10;;;14.90;58.00;;;;;;5052157;28;20282;-50
2023/07/21 04:14:29;;;;;;;0.03;0.03;;;15.00;58.00;;;;;;5051881;28;20194;-49
2023/07/21 04:17:00;;;;;;;0.10;0.10;;;15.00;58.00;;;;;;5052624;28;20219;-48
2023/07/21 04:19:31;;;;;;;0.00;0.00;;;15.00;58.00;;;;;;5052954;28;20547;-49
2023/07/21 04:22:02;;;;;;;0.00;0.00;;;15.00;57.90;;;;;;5052866;28;20207;-52
2023/07/21 04:24:33;;;;;;;0.10;0.10;;;15.00;57.90;;;;;;5052738;28;20218;-49
2023/07/21 04:27:06;;;;;;;0.08;0.08;;;15.00;57.80;;;;;;5052583;28;20269;-51
2023/07/21 04:29:37;;;;;;;0.10;0.10;;;15.00;57.80;;;;;;5053085;28;20203;-52
2023/07/21 04:32:08;;;;;;;0.10;0.10;;;15.00;57.80;;;;;;5052445;28;20207;-49
2023/07/21 04:34:38;;;;;;;0.08;0.08;;;15.10;57.80;;;;;;5052629;28;20205;-51
2023/07/21 04:37:10;;;;;;;0.10;0.10;;;15.00;57.70;;;;;;5033135;28;20219;-50
2023/07/21 04:39:40;;;;;;;0.10;0.10;;;15.00;57.70;;;;;;5042096;28;20298;-52
2023/07/21 04:42:13;;;;;;;0.10;0.10;;;15.00;57.60;;;;;;5051965;28;20563;-52
2023/07/21 04:44:44;;;;;;;0.10;0.10;;;15.00;57.70;;;;;;5052816;28;20621;-51
2023/07/21 04:47:15;;;;;;;0.10;0.10;;;15.00;57.70;;;;;;5052275;28;20679;-57
2023/07/21 04:49:48;;;;;;;0.13;0.13;;;15.10;57.70;;;;;;5052502;28;20202;-52
2023/07/21 04:52:18;;;;;;;0.10;0.10;;;15.10;57.70;;;;;;5052286;28;20233;-50
2023/07/21 04:54:49;;;;;;;0.00;0.00;;;15.10;57.70;;;;;;5051747;28;20222;-49
2023/07/21 04:57:22;;;;;;;0.10;0.10;;;15.10;57.60;;;;;;5044896;28;20220;-48
2023/07/21 04:59:52;;;;;;;0.10;0.10;;;15.10;57.60;;;;;;5052054;28;20300;-49
2023/07/21 05:02:25;;;;;;;0.10;0.10;;;15.10;57.60;;;;;;5051844;28;20193;-50
2023/07/21 05:04:57;;;;;;;0.10;0.10;;;15.10;57.50;;;;;;5051830;28;20199;-49
2023/07/21 05:07:28;;;;;;;0.10;0.10;;;15.10;57.50;;;;;;5051684;28;20212;-50
2023/07/21 05:09:58;;;;;;;0.10;0.10;;;15.10;57.40;;;;;;5049965;28;20206;-50
2023/07/21 05:12:31;;;;;;;0.20;0.20;;;15.10;57.40;;;;;;5047363;28;20270;-49
2023/07/21 05:15:02;;;;;;;0.15;0.15;;;15.10;57.50;;;;;;5041459;28;20196;-48
2023/07/21 05:17:33;;;;;;;0.20;0.20;;;15.00;57.40;;;;;;5034443;28;20215;-52
2023/07/21 05:20:05;;;;;;;0.10;0.10;;;15.10;57.50;;;;;;5037639;28;20211;-51
2023/07/21 05:22:36;;;;;;;0.10;0.10;;;15.00;57.40;;;;;;5051133;28;20201;-51
2023/07/21 05:25:08;;;;;;;0.10;0.10;;;15.10;57.50;;;;;;5051827;28;20203;-52
2023/07/21 05:27:41;;;;;;;0.10;0.10;;;15.10;57.40;;;;;;5051219;28;20222;-50
2023/07/21 05:30:13;;;;;;;0.10;0.10;;;15.10;57.40;;;;;;5041422;28;20512;-50
2023/07/21 05:32:44;;;;;;;0.10;0.10;;;15.10;57.40;;;;;;5031408;28;20629;-49
2023/07/21 05:35:14;;;;;;;0.13;0.13;;;15.00;57.40;;;;;;5036403;28;20191;-50
2023/07/21 05:37:45;;;;;;;0.10;0.10;;;15.00;57.40;;;;;;5050029;28;20223;-48
2023/07/21 05:40:16;;;;;;;0.10;0.10;;;15.00;57.40;;;;;;5050705;28;20298;-49
2023/07/21 05:42:50;;;;;;;0.10;0.10;;;15.00;57.40;;;;;;5051522;28;20192;-48
2023/07/21 05:45:20;;;;;;;0.10;0.10;;;15.00;57.40;;;;;;5051026;28;20537;-54
2023/07/21 05:47:51;;;;;;;0.10;0.10;;;15.00;57.30;;;;;;5051400;28;20223;-49
2023/07/21 05:50:22;;;;;;;0.10;0.10;;;15.00;57.40;;;;;;5050507;28;20379;-50
2023/07/21 05:52:53;;;;;;;0.10;0.10;;;15.00;57.30;;;;;;5051237;28;20198;-49
2023/07/21 05:55:24;;;;;;;0.10;0.10;;;15.00;57.30;;;;;;5049708;28;20191;-50
2023/07/21 05:57:57;;;;;;;0.10;0.10;;;15.00;57.30;;;;;;5044144;28;20219;-49
2023/07/21 06:00:27;;;;;;;0.10;0.10;;;15.00;57.20;;;;;;5039874;28;20294;-52
2023/07/21 06:02:58;;;;;;;0.10;0.10;;;15.00;57.30;;;;;;5030815;28;20203;-50
2023/07/21 06:05:29;;;;;;;0.05;0.05;;;15.00;57.30;;;;;;5041553;28;20203;-49
2023/07/21 06:07:59;;;;;;;0.10;0.10;;;15.00;57.30;;;;;;5050944;28;20698;-48
2023/07/21 06:10:30;;;;;;;0.10;0.10;;;15.00;57.30;;;;;;5039147;28;20214;-48
2023/07/21 06:13:04;;;;;;;0.10;0.10;;;15.00;57.30;;;;;;5030705;28;20196;-50
2023/07/21 06:15:36;;;;;;;0.10;0.10;;;15.00;57.30;;;;;;5030818;28;20602;-50
2023/07/21 06:18:07;;;;;;;0.10;0.10;;;15.00;57.20;;;;;;5030893;28;20223;-49
2023/07/21 06:20:38;;;;;;;0.10;0.10;;;15.00;57.30;;;;;;5042022;28;20292;-50
2023/07/21 06:23:08;;;;;;;0.00;0.00;;;15.00;57.20;;;;;;5051231;28;20191;-50
2023/07/21 06:25:39;;;;;;;0.10;0.10;;;14.90;57.20;;;;;;5048803;28;20203;-51
2023/07/21 06:28:12;;;;;;;0.10;0.10;;;14.90;57.20;;;;;;5050058;28;20215;-50
2023/07/21 06:30:42;;;;;;;0.10;0.10;;;14.90;57.20;;;;;;5050477;28;20674;-48
2023/07/21 06:33:13;;;;;;;0.05;0.05;;;15.00;57.40;;;;;;5050142;28;20195;-51
2023/07/21 06:35:44;;;;;;;0.10;0.10;;;14.90;57.70;;;;;;5050253;28;20569;-48
2023/07/21 06:38:14;;;;;;;0.10;0.10;;;15.00;57.90;;;;;;5049476;28;20624;-52
2023/07/21 06:40:45;;;;;;;0.10;0.10;;;15.00;57.90;;;;;;5049923;28;20684;-51
2023/07/21 06:43:18;;;;;;;0.10;0.10;;;14.90;57.70;;;;;;5050138;28;20210;-49
2023/07/21 06:45:48;;;;;;;0.10;0.10;;;15.00;57.70;;;;;;5050094;28;20196;-50
2023/07/21 06:48:19;;;;;;;0.10;0.10;;;15.00;57.60;;;;;;5050926;28;20222;-48
2023/07/21 06:50:50;;;;;;;0.10;0.10;;;14.90;57.50;;;;;;5054893;28;20199;-50
2023/07/21 06:53:21;;;;;;;0.10;0.10;;;14.90;57.50;;;;;;5054928;28;20273;-50
2023/07/21 06:55:54;;;;;;;0.10;0.10;;;15.00;57.50;;;;;;5053433;28;20674;-51
2023/07/21 06:58:26;;;;;;;0.10;0.10;;;15.00;57.50;;;;;;5043651;28;20281;-50
2023/07/21 07:01:00;;;;;;;0.20;0.20;;;15.00;57.50;;;;;;5036131;28;20222;-48
2023/07/21 07:03:31;;;;;;;0.10;0.10;;;14.90;57.40;;;;;;5034774;28;20195;-49
2023/07/21 07:06:02;;;;;;;0.10;0.10;;;15.00;57.40;;;;;;5045273;28;20682;-52
2023/07/21 07:08:32;;;;;;;0.10;0.10;;;14.90;57.40;;;;;;5051820;28;20860;-54
2023/07/21 07:11:03;;;;;;;0.10;0.10;;;14.90;57.30;;;;;;5052157;28;20196;-52
2023/07/21 07:13:35;;;;;;;0.10;0.10;;;14.90;57.30;;;;;;5037049;28;20196;-52
2023/07/21 07:16:06;;;;;;;0.10;0.10;;;14.90;57.30;;;;;;5045071;28;20188;-51
2023/07/21 07:18:37;;;;;;;0.10;0.10;;;14.90;57.90;;;;;;5049331;28;20192;-53
2023/07/21 07:21:07;;;;;;;0.10;0.10;;;14.90;57.30;;;;;;5038837;28;20737;-50
2023/07/21 07:23:38;;;;;;;0.13;0.13;;;14.90;57.90;;;;;;5034394;28;20563;-51
2023/07/21 07:26:09;;;;;;;0.10;0.10;;;14.90;57.30;;;;;;5041067;28;20199;-49
2023/07/21 07:28:41;;;;;;;0.10;0.10;;;14.90;57.30;;;;;;5051062;28;20210;-49
2023/07/21 07:31:12;;;;;;;0.10;0.10;;;14.90;57.30;;;;;;5034344;28;20617;-48
2023/07/21 07:33:42;;;;;;;0.10;0.10;;;14.90;57.30;;;;;;5034358;28;20614;-49
2023/07/21 07:36:14;;;;;;;0.10;0.10;;;14.80;57.30;;;;;;5046913;28;20204;-56
2023/07/21 07:38:45;;;;;;;0.10;0.10;;;14.80;57.30;;;;;;5054005;28;20188;-48
2023/07/21 07:41:17;;;;;;;0.10;0.10;;;14.80;57.30;;;;;;5053438;28;20320;-51
2023/07/21 07:43:50;;;;;;;0.10;0.10;;;14.80;57.20;;;;;;5054109;28;20675;-47
2023/07/21 07:46:21;;;;;;;0.10;0.10;;;14.80;57.30;;;;;;5054268;28;20265;-48
2023/07/21 07:48:51;;;;;;;0.10;0.10;;;14.80;57.30;;;;;;5054290;28;20294;-48
2023/07/21 07:51:22;;;;;;;0.10;0.10;;;14.80;57.30;;;;;;5054496;28;20203;-48
2023/07/21 07:53:53;;;;;;;0.10;0.10;;;14.80;57.30;;;;;;5053143;28;20191;-51
2023/07/21 07:56:24;;;;;;;0.10;0.10;;;14.80;57.30;;;;;;5052688;28;20721;-50
2023/07/21 07:58:59;;;;;;;0.10;0.10;;;14.80;57.30;;;;;;5053427;28;20647;-48
2023/07/21 08:01:30;;;;;;;0.10;0.10;;;14.80;57.30;;;;;;5052254;28;20218;-48
2023/07/21 08:04:00;;;;;;;0.05;0.05;;;14.80;57.30;;;;;;5053432;28;20227;-48
2023/07/21 08:06:31;;;;;;;0.00;0.00;;;14.80;57.30;;;;;;5052978;28;20243;-50
2023/07/21 08:09:02;;;;;;;0.10;0.10;;;14.80;57.30;;;;;;5048006;28;20204;-50
2023/07/21 08:11:33;;;;;;;0.10;0.10;;;14.80;57.20;;;;;;5033762;28;20227;-47
2023/07/21 08:14:06;;;;;;;0.10;0.10;;;14.80;57.20;;;;;;5033722;28;20208;-48
2023/07/21 08:16:38;;;;;;;0.10;0.10;;;14.70;57.20;;;;;;5033296;28;20260;-50
2023/07/21 08:19:09;;;;;;;0.10;0.10;;;14.80;57.20;;;;;;5033478;28;20196;-49
2023/07/21 08:21:39;;;;;;;0.20;0.20;;;14.80;57.20;;;;;;5033191;28;20232;-52
2023/07/21 08:24:10;;;;;;;0.10;0.10;;;14.80;57.20;;;;;;5032594;28;20204;-49
2023/07/21 08:26:40;;;;;;;0.10;0.10;;;14.80;57.20;;;;;;5033458;28;20715;-50
2023/07/21 08:29:13;;;;;;;0.10;0.10;;;14.80;57.20;;;;;;5033145;28;20196;-52
2023/07/21 08:31:44;;;;;;;0.10;0.10;;;14.80;57.20;;;;;;5032903;28;20208;-50
2023/07/21 08:34:14;;;;;;;0.10;0.10;;;14.70;57.10;;;;;;5033055;28;20203;-52
2023/07/21 08:36:45;;;;;;;0.10;0.10;;;14.70;57.10;;;;;;5049675;28;20691;-48
2023/07/21 08:39:15;;;;;;;0.10;0.10;;;14.70;57.10;;;;;;5051524;28;20196;-48
2023/07/21 08:41:51;;;;;;;0.10;0.10;;;14.70;57.20;;;;;;5052589;28;20223;-51
2023/07/21 08:44:24;;;;;;;0.10;0.10;;;14.70;57.40;;;;;;5052791;28;20195;-58
2023/07/21 08:46:55;;;;;;;0.10;0.10;;;14.70;57.50;;;;;;5052782;28;20211;-51
2023/07/21 08:49:26;;;;;;;0.10;0.10;;;14.70;57.60;;;;;;5046871;28;20196;-51
2023/07/21 08:51:56;;;;;;;0.10;0.10;;;14.70;57.80;;;;;;5041007;28;20241;-54
2023/07/21 08:54:27;;;;;;;0.10;0.10;;;14.80;57.80;;;;;;5041051;28;20187;-49
2023/07/21 08:56:58;;;;;;;0.10;0.10;;;14.80;57.70;;;;;;5042911;28;20517;-49
2023/07/21 08:59:30;;;;;;;0.10;0.10;;;14.80;57.70;;;;;;5035014;28;20204;-51
2023/07/21 09:02:01;;;;;;;0.10;0.10;;;14.70;57.50;;;;;;5041232;28;20284;-51
2023/07/21 09:04:31;;;;;;;0.10;0.10;;;14.80;57.50;;;;;;5040999;28;20295;-50
2023/07/21 09:07:03;;;;;;;0.10;0.10;;;14.70;57.40;;;;;;5051118;28;20285;-54
2023/07/21 09:09:34;;;;;;;0.10;0.10;;;14.80;57.40;;;;;;5034313;28;20197;-52
2023/07/21 09:12:07;;;;;;;0.10;0.10;;;14.80;57.40;;;;;;5035460;28;20216;-54
2023/07/21 09:14:43;;;;;;;0.13;0.13;;;14.70;57.30;;;;;;5036787;28;20193;-53
2023/07/21 09:17:16;;;;;;;0.10;0.10;;;14.70;57.40;;;;;;5047793;28;20585;-50
2023/07/21 09:19:47;;;;;;;0.10;0.10;;;14.70;57.30;;;;;;5049310;28;20196;-52
2023/07/21 09:22:25;;;;;;;0.10;0.10;;;14.70;57.30;;;;;;5051263;28;20234;-53
2023/07/21 09:24:56;;;;;;;0.20;0.20;;;14.70;57.30;;;;;;5044705;28;20196;-54
2023/07/21 09:27:26;;;;;;;0.10;0.10;;;14.70;57.30;;;;;;5032223;28;20220;-52
2023/07/21 09:30:05;;;;;;;0.10;0.10;;;14.70;57.30;;;;;;5031580;28;20254;-54
2023/07/21 09:32:43;;;;;;;0.10;0.10;;;14.70;57.20;;;;;;5031463;28;20239;-51
2023/07/21 09:35:14;;;;;;;0.10;0.10;;;14.70;57.80;;;;;;5039108;28;20245;-53
2023/07/21 09:37:44;;;;;;;0.10;0.10;;;14.70;57.20;;;;;;5050237;28;20215;-52
2023/07/21 09:40:15;;;;;;;0.10;0.10;;;14.70;57.20;;;;;;5029627;28;20196;-51
2023/07/21 09:42:46;;;;;;;0.10;0.10;;;14.70;57.20;;;;;;5031127;28;20239;-52
2023/07/21 09:45:19;;;;;;;0.10;0.10;;;14.70;57.20;;;;;;5043310;28;20191;-50
2023/07/21 09:47:51;;;;;;;0.10;0.10;;;14.70;57.30;;;;;;5051509;28;20222;-51
2023/07/21 09:50:23;;;;;;;0.10;0.10;;;14.70;57.20;;;;;;5043836;28;20211;-49
2023/07/21 09:52:56;;;;;;;0.10;0.10;;;14.70;57.20;;;;;;5031077;28;20254;-50
2023/07/21 09:55:29;;;;;;;0.10;0.10;;;14.60;57.20;;;;;;5040082;28;20195;-50
2023/07/21 09:57:59;;;;;;;0.10;0.10;;;14.70;57.20;;;;;;5051454;28;20219;-51
2023/07/21 10:00:33;;;;;;;0.10;0.10;;;14.70;57.20;;;;;;5050179;28;20238;-52
2023/07/21 10:03:05;;;;;;;0.10;0.10;;;14.70;57.20;;;;;;5043255;28;20589;-54
2023/07/21 10:05:36;;;;;;;0.10;0.10;;;14.70;57.20;;;;;;5040559;28;20605;-54
2023/07/21 10:08:09;;;;;;;0.10;0.10;;;14.70;57.20;;;;;;5050453;28;20220;-54
2023/07/21 10:10:40;;;;;;;0.10;0.10;;;14.70;57.20;;;;;;5049778;28;20191;-52
2023/07/21 10:13:13;;;;;;;0.10;0.10;;;14.70;57.20;;;;;;5049921;28;20203;-52
2023/07/21 10:15:50;;;;;;;0.10;0.10;;;14.70;57.20;;;;;;5051133;28;20215;-49
2023/07/21 10:18:21;;;;;;;0.10;0.10;;;14.70;57.20;;;;;;5049680;28;20309;-51
2023/07/21 10:20:53;;;;;;;0.10;0.10;;;14.70;57.10;;;;;;5050373;28;20643;-49
2023/07/21 10:23:27;;;;;;;0.10;0.10;;;14.70;57.20;;;;;;5050092;28;20226;-49
2023/07/21 10:26:00;;;;;;;0.10;0.10;;;14.60;57.10;;;;;;5049770;28;20282;-49
2023/07/21 10:28:43;;;;;;;0.10;0.10;;;14.60;57.10;;;;;;5050963;28;20195;-52
2023/07/21 10:31:38;;;;;;;0.10;0.10;;;14.60;57.10;;;;;;5049473;28;20248;-48
2023/07/21 10:34:11;;;;;;;0.10;0.10;;;14.60;57.20;;;;;;5050983;28;20195;-52
2023/07/21 10:37:02;;;;;;;0.10;0.10;;;14.60;57.10;;;;;;5046023;28;20466;-52
2023/07/21 10:39:34;;;;;;;0.13;0.13;;;14.60;57.10;;;;;;5050130;28;20209;-50
2023/07/21 10:42:06;;;;;;;0.10;0.10;;;14.60;57.10;;;;;;5049696;28;20219;-49
2023/07/21 10:44:38;;;;;;;0.10;0.10;;;14.60;57.10;;;;;;5050155;28;20192;-48
2023/07/21 10:47:15;;;;;;;0.20;0.20;;;14.60;57.10;;;;;;5030802;28;20680;-48
2023/07/21 10:49:46;;;;;;;0.20;0.20;;;14.60;57.10;;;;;;5030739;28;20246;-50
2023/07/21 10:52:18;;;;;;;0.10;0.10;;;14.60;57.10;;;;;;5031249;28;20279;-48
2023/07/21 10:54:49;;;;;;;0.10;0.10;;;14.60;57.10;;;;;;5030561;28;20196;-50
2023/07/21 10:57:20;;;;;;;0.10;0.10;;;14.60;57.10;;;;;;5050369;28;20219;-55
2023/07/21 10:59:51;;;;;;;0.10;0.10;;;14.60;57.10;;;;;;5050302;28;20199;-49
2023/07/21 11:02:27;;;;;;;0.10;0.10;;;14.60;57.10;;;;;;5049555;28;20226;-50
2023/07/21 11:05:02;;;;;;;0.10;0.10;;;14.60;57.10;;;;;;5050116;28;20202;-47
2023/07/21 11:07:33;;;;;;;0.10;0.10;;;14.60;57.10;;;;;;5049307;28;20294;-51
2023/07/21 11:10:03;;;;;;;0.10;0.10;;;14.60;57.10;;;;;;5049910;28;20265;-50
2023/07/21 11:12:34;;;;;;;0.10;0.10;;;14.60;57.10;;;;;;5043630;28;20200;-51
2023/07/21 11:15:06;;;;;;;0.10;0.10;;;14.60;57.10;;;;;;5033276;28;20192;-50
2023/07/21 11:17:41;;;;;;;0.10;0.10;;;14.60;57.10;;;;;;5049874;28;20641;-49
2023/07/21 11:20:14;;;;;;;0.10;0.10;;;14.60;57.10;;;;;;5034091;28;20192;-52
2023/07/21 11:22:45;;;;;;;0.10;0.10;;;14.60;57.10;;;;;;5046592;28;20296;-49
2023/07/21 11:25:16;;;;;;;0.10;0.10;;;14.60;57.10;;;;;;5047266;28;20199;-50
2023/07/21 11:27:48;;;;;;;0.10;0.10;;;14.60;57.10;;;;;;5031197;28;20220;-51
2023/07/21 11:30:20;;;;;;;0.10;0.10;;;14.60;57.10;;;;;;5030400;28;20200;-51
2023/07/21 11:33:10;;;;;;;0.10;0.10;;;14.50;57.00;;;;;;5033952;28;20211;-52
2023/07/21 11:35:50;;;;;;;0.10;0.10;;;14.60;57.10;;;;;;5050899;28;20253;-51
2023/07/21 11:38:20;;;;;;;0.17;0.17;;;14.50;57.00;;;;;;5053328;28;20219;-52
2023/07/21 11:40:52;;;;;;;0.10;0.10;;;14.60;57.10;;;;;;5053791;28;20199;-50
2023/07/21 11:43:23;;;;;;;0.08;0.08;;;14.50;57.00;;;;;;5053596;28;20273;-51
2023/07/21 11:45:54;;;;;;;0.10;0.10;;;14.50;57.10;;;;;;5048421;28;21361;-55
2023/07/21 11:48:27;;;;;;;0.10;0.10;;;14.50;57.10;;;;;;5042636;28;20188;-54
2023/07/21 11:50:58;;;;;;;0.10;0.10;;;14.50;57.10;;;;;;5044429;28;20211;-55
2023/07/21 11:53:29;;;;;;;0.10;0.10;;;14.50;57.10;;;;;;5044775;28;20664;-51
2023/07/21 11:55:59;;;;;;;0.20;0.20;;;14.50;57.10;;;;;;5044950;28;20202;-51
2023/07/21 11:58:30;;;;;;;0.10;0.10;;;14.50;57.10;;;;;;5044200;28;20200;-52
2023/07/21 12:01:01;;;;;;;0.10;0.10;;;14.50;57.00;;;;;;5042980;28;20215;-52
2023/07/21 12:03:36;;;;;;;0.10;0.10;;;14.50;57.00;;;;;;5042061;28;20278;-54
2023/07/21 12:06:07;;;;;;;0.10;0.10;;;14.50;57.00;;;;;;5044090;28;20489;-51
2023/07/21 12:08:37;;;;;;;0.10;0.10;;;14.50;57.00;;;;;;5040752;28;20652;-53
2023/07/21 12:11:08;;;;;;;0.13;0.13;;;14.50;57.00;;;;;;5042265;28;20187;-52
2023/07/21 12:13:39;;;;;;;0.10;0.10;;;14.50;57.00;;;;;;5042580;28;20207;-54
2023/07/21 12:16:11;;;;;;;0.10;0.10;;;14.40;57.00;;;;;;5042155;28;20264;-53
2023/07/21 12:18:44;;;;;;;0.10;0.10;;;14.50;57.10;;;;;;5042660;28;20196;-51
2023/07/21 12:21:17;;;;;;;0.10;0.10;;;14.50;57.10;;;;;;5042045;28;20230;-50
2023/07/21 12:23:47;;;;;;;0.10;0.10;;;14.50;57.10;;;;;;5043857;28;20211;-49
2023/07/21 12:26:18;;;;;;;0.10;0.10;;;14.50;57.10;;;;;;5041900;28;20196;-50
2023/07/21 12:28:50;;;;;;;0.10;0.10;;;14.40;57.00;;;;;;5042102;28;20195;-52
2023/07/21 12:31:21;;;;;;;0.10;0.10;;;14.50;57.10;;;;;;5042469;28;20200;-52
2023/07/21 12:33:54;;;;;;;0.10;0.10;;;14.40;57.00;;;;;;5043591;28;20188;-54
2023/07/21 12:36:24;;;;;;;0.10;0.10;;;14.50;57.10;;;;;;5043259;28;20220;-51
2023/07/21 12:38:55;;;;;;;0.10;0.10;;;14.50;57.10;;;;;;5044886;28;20191;-51
2023/07/21 12:41:26;;;;;;;0.10;0.10;;;14.40;57.00;;;;;;5040930;28;20211;-52
2023/07/21 12:43:56;;;;;;;0.10;0.10;;;14.40;57.00;;;;;;5041327;28;20223;-50
2023/07/21 12:46:27;;;;;;;0.10;0.10;;;14.40;57.00;;;;;;5041755;28;20677;-53
2023/07/21 12:48:59;;;;;;;0.10;0.10;;;14.40;57.00;;;;;;5042041;28;20198;-50
2023/07/21 12:51:30;;;;;;;0.10;0.10;;;14.40;57.00;;;;;;5042677;28;20192;-50
2023/07/21 12:54:01;;;;;;;0.10;0.10;;;14.40;57.00;;;;;;5041333;28;20195;-49
2023/07/21 12:56:31;;;;;;;0.10;0.10;;;14.40;57.00;;;;;;5042555;28;20222;-55
2023/07/21 12:59:02;;;;;;;0.10;0.10;;;14.40;57.60;;;;;;5043424;28;20184;-52
2023/07/21 13:01:33;;;;;;;0.10;0.10;;;14.40;57.00;;;;;;5040673;28;20219;-52
2023/07/21 13:04:05;;;;;;;0.10;0.10;;;14.30;57.00;;;;;;5042210;28;20298;-56
2023/07/21 13:06:36;;;;;;;0.10;0.10;;;14.30;57.00;;;;;;5042568;28;20684;-55
2023/07/21 13:09:07;;;;;;;0.10;0.10;;;14.30;57.00;;;;;;5042099;28;20191;-54
2023/07/21 13:11:38;;;;;;;0.10;0.10;;;14.40;57.00;;;;;;5038022;28;20200;-49